Time;durP1;ratioP1;P1;durP2;ratioP2;P2;SDS_P1;SDS_P2;PMS_P1;PMS_P2;Temp;Humidity;BMP_temperature;BMP_pressure;BME280_temperature;BME280_humidity;BME280_pressure;Samples;Min_cycle;Max_cycle;Signal;HPM_P1;HPM_P2
2022/08/01 00:00:33;;;;;;;3.93;3.27;;;18.50;99.90;;;;;;5070651;28;20476;-49
2022/08/01 00:03:00;;;;;;;3.27;2.97;;;18.50;99.90;;;;;;5071331;28;20489;-47
2022/08/01 00:05:27;;;;;;;3.23;3.03;;;18.60;99.90;;;;;;5071578;28;20445;-47
2022/08/01 00:07:54;;;;;;;3.53;3.23;;;18.60;99.90;;;;;;5071337;28;20460;-48
2022/08/01 00:10:21;;;;;;;3.70;3.10;;;18.50;99.90;;;;;;5071133;28;20479;-48
2022/08/01 00:12:49;;;;;;;3.10;2.70;;;18.30;99.90;;;;;;5071048;28;20465;-49
2022/08/01 00:15:17;;;;;;;3.33;3.00;;;18.30;99.90;;;;;;5071335;28;20444;-48
2022/08/01 00:17:45;;;;;;;3.20;2.90;;;18.40;99.90;;;;;;5071176;28;20538;-47
2022/08/01 00:20:15;;;;;;;3.53;3.23;;;18.40;99.90;;;;;;5070739;28;20502;-47
2022/08/01 00:22:42;;;;;;;3.03;2.73;;;18.50;99.90;;;;;;5071064;28;20490;-50
2022/08/01 00:25:10;;;;;;;6.03;3.07;;;18.50;99.90;;;;;;5071112;28;20449;-49
2022/08/01 00:27:37;;;;;;;4.97;3.27;;;18.50;99.90;;;;;;5071213;28;20472;-48
2022/08/01 00:30:04;;;;;;;4.50;3.07;;;18.50;99.90;;;;;;5070821;28;20444;-47
2022/08/01 00:32:32;;;;;;;4.67;3.00;;;18.50;99.90;;;;;;5070716;28;20538;-47
2022/08/01 00:35:00;;;;;;;5.20;3.63;;;18.50;99.90;;;;;;5070900;28;20448;-47
2022/08/01 00:37:27;;;;;;;3.30;3.00;;;18.50;99.90;;;;;;5070431;28;20899;-49
2022/08/01 00:39:54;;;;;;;4.93;2.70;;;18.50;99.90;;;;;;5070645;28;20440;-47
2022/08/01 00:42:21;;;;;;;2.87;2.67;;;18.60;99.90;;;;;;5070742;28;20468;-49
2022/08/01 00:44:49;;;;;;;3.33;2.83;;;18.60;99.90;;;;;;5070499;28;20432;-49
2022/08/01 00:47:16;;;;;;;4.50;4.10;;;18.60;99.90;;;;;;5070639;28;20518;-48
2022/08/01 00:49:43;;;;;;;3.70;3.40;;;18.60;99.90;;;;;;5070378;28;20444;-48
2022/08/01 00:52:12;;;;;;;3.10;2.80;;;18.50;99.90;;;;;;5070404;28;20518;-48
2022/08/01 00:54:40;;;;;;;4.20;2.70;;;18.30;99.90;;;;;;5070362;28;20432;-47
2022/08/01 00:57:08;;;;;;;3.97;2.90;;;18.30;99.90;;;;;;5070386;28;20889;-49
2022/08/01 00:59:35;;;;;;;4.03;3.30;;;18.30;99.90;;;;;;5070188;28;20444;-48
2022/08/01 01:02:03;;;;;;;4.60;3.03;;;18.40;99.90;;;;;;5070891;28;20479;-49
2022/08/01 01:04:29;;;;;;;5.67;3.10;;;18.40;99.90;;;;;;5070364;28;20861;-47
2022/08/01 01:07:05;;;;;;;3.30;3.00;;;18.50;99.90;;;;;;5070216;28;20867;-51
2022/08/01 01:09:40;;;;;;;3.73;3.07;;;18.60;99.90;;;;;;5070403;28;20776;-48
2022/08/01 01:12:19;;;;;;;3.77;3.37;;;18.50;99.90;;;;;;5069151;28;20468;-47
2022/08/01 01:14:56;;;;;;;3.83;3.17;;;18.60;99.90;;;;;;5070296;28;20964;-48
2022/08/01 01:17:28;;;;;;;4.43;3.70;;;18.60;99.90;;;;;;5070286;28;20491;-48
2022/08/01 01:20:00;;;;;;;8.20;3.10;;;18.50;99.90;;;;;;5069923;28;20441;-47
2022/08/01 01:22:46;;;;;;;3.50;3.20;;;18.40;99.90;;;;;;5069999;28;20528;-50
2022/08/01 01:25:36;;;;;;;3.40;3.10;;;18.30;99.90;;;;;;5070181;28;20922;-47
2022/08/01 01:28:13;;;;;;;4.77;3.30;;;18.30;99.90;;;;;;5070061;28;20460;-47
2022/08/01 01:30:46;;;;;;;2.70;2.50;;;18.40;99.90;;;;;;5069715;28;20547;-50
2022/08/01 01:33:14;;;;;;;3.97;3.13;;;18.50;99.90;;;;;;5069850;28;20518;-47
2022/08/01 01:35:45;;;;;;;4.37;3.60;;;18.50;99.90;;;;;;5069971;28;20502;-47
2022/08/01 01:38:19;;;;;;;3.93;3.27;;;18.50;99.90;;;;;;5069858;28;20484;-51
2022/08/01 01:40:48;;;;;;;4.03;3.63;;;18.40;99.90;;;;;;5069667;28;20498;-49
2022/08/01 01:43:16;;;;;;;3.20;2.90;;;18.30;99.90;;;;;;5069862;28;20440;-47
2022/08/01 01:45:46;;;;;;;5.73;3.33;;;18.30;99.90;;;;;;5069832;28;20467;-49
2022/08/01 01:48:16;;;;;;;3.20;2.90;;;18.30;99.90;;;;;;5069678;28;20464;-49
2022/08/01 01:50:46;;;;;;;7.47;3.20;;;18.40;99.90;;;;;;5069648;28;20451;-49
2022/08/01 01:53:14;;;;;;;5.03;3.40;;;18.40;99.90;;;;;;5069574;28;20732;-47
2022/08/01 01:55:44;;;;;;;3.90;3.60;;;18.40;99.90;;;;;;5069689;28;20513;-47
2022/08/01 01:58:14;;;;;;;6.10;3.47;;;18.20;99.90;;;;;;5069676;28;20512;-48
2022/08/01 02:00:45;;;;;;;2.83;2.63;;;18.20;99.90;;;;;;5069501;28;20444;-47
2022/08/01 02:03:14;;;;;;;4.20;3.00;;;18.30;99.90;;;;;;5069788;28;20941;-50
2022/08/01 02:05:43;;;;;;;3.10;2.90;;;18.30;99.90;;;;;;5069705;28;20455;-48
2022/08/01 02:08:12;;;;;;;3.37;2.40;;;18.30;99.90;;;;;;5070058;28;20464;-47
2022/08/01 02:10:41;;;;;;;3.30;3.00;;;18.30;99.90;;;;;;5069293;28;20429;-47
2022/08/01 02:13:10;;;;;;;3.33;3.03;;;18.20;99.90;;;;;;5069386;28;20575;-47
2022/08/01 02:15:39;;;;;;;4.10;3.10;;;18.30;99.90;;;;;;5069403;28;20991;-47
2022/08/01 02:18:11;;;;;;;3.33;3.03;;;18.30;99.90;;;;;;5069357;28;20540;-47
2022/08/01 02:20:38;;;;;;;4.97;3.57;;;18.40;99.90;;;;;;5068964;28;20428;-47
2022/08/01 02:23:11;;;;;;;3.77;3.43;;;18.40;99.90;;;;;;5070436;28;20440;-48
2022/08/01 02:25:43;;;;;;;3.70;2.83;;;18.20;99.90;;;;;;5073403;28;20428;-47
2022/08/01 02:28:14;;;;;;;6.50;3.40;;;18.20;99.90;;;;;;5073257;28;20547;-49
2022/08/01 02:30:46;;;;;;;4.00;3.37;;;17.90;99.90;;;;;;5072987;28;20444;-49
2022/08/01 02:33:18;;;;;;;3.77;3.20;;;17.90;99.90;;;;;;5073167;28;21181;-48
2022/08/01 02:35:50;;;;;;;4.57;3.30;;;18.00;99.90;;;;;;5073229;28;20445;-47
2022/08/01 02:38:21;;;;;;;3.03;2.70;;;18.00;99.90;;;;;;5072956;28;20440;-47
2022/08/01 02:40:51;;;;;;;2.80;2.50;;;18.00;99.90;;;;;;5072766;28;20829;-47
2022/08/01 02:43:22;;;;;;;3.20;2.90;;;18.10;99.90;;;;;;5072903;28;20472;-48
2022/08/01 02:45:53;;;;;;;3.83;2.97;;;18.10;99.90;;;;;;5073019;28;20511;-49
2022/08/01 02:48:24;;;;;;;6.30;2.90;;;18.10;99.90;;;;;;5072851;28;20992;-48
2022/08/01 02:50:53;;;;;;;5.20;3.00;;;18.20;99.90;;;;;;5072934;28;20894;-48
2022/08/01 02:53:23;;;;;;;3.50;3.20;;;18.20;99.90;;;;;;5072676;28;20468;-47
2022/08/01 02:55:52;;;;;;;4.30;3.13;;;18.10;99.90;;;;;;5072841;28;20478;-49
2022/08/01 02:58:23;;;;;;;3.93;2.90;;;18.20;99.90;;;;;;5072644;28;20468;-47
2022/08/01 03:00:51;;;;;;;5.70;2.83;;;18.10;99.90;;;;;;5072466;28;20429;-47
2022/08/01 03:03:19;;;;;;;4.20;3.17;;;18.00;99.90;;;;;;5072743;28;20429;-49
2022/08/01 03:05:49;;;;;;;3.50;3.00;;;18.00;99.90;;;;;;5072531;28;20879;-50
2022/08/01 03:08:17;;;;;;;3.63;3.10;;;17.90;99.90;;;;;;5072433;28;20459;-50
2022/08/01 03:10:46;;;;;;;4.40;4.00;;;17.90;99.90;;;;;;5072186;28;20957;-49
2022/08/01 03:13:16;;;;;;;3.47;3.17;;;17.90;99.90;;;;;;5072286;28;20593;-49
2022/08/01 03:15:44;;;;;;;3.13;2.83;;;17.90;99.90;;;;;;5072473;28;20444;-47
2022/08/01 03:18:15;;;;;;;2.90;2.50;;;17.90;99.90;;;;;;5072336;28;20460;-49
2022/08/01 03:20:43;;;;;;;6.57;3.27;;;18.00;99.90;;;;;;5071696;28;20436;-48
2022/08/01 03:23:13;;;;;;;3.33;2.70;;;18.10;99.90;;;;;;5072355;28;20444;-48
2022/08/01 03:25:42;;;;;;;3.27;2.97;;;18.10;99.90;;;;;;5072627;28;20551;-47
2022/08/01 03:28:13;;;;;;;3.20;2.90;;;18.10;99.90;;;;;;5071931;28;20875;-52
2022/08/01 03:30:41;;;;;;;3.87;2.87;;;18.10;99.90;;;;;;5072470;28;20452;-49
2022/08/01 03:33:09;;;;;;;4.10;3.37;;;18.10;99.90;;;;;;5072030;28;20873;-48
2022/08/01 03:35:40;;;;;;;3.50;3.20;;;18.10;99.90;;;;;;5071160;28;20518;-47
2022/08/01 03:38:11;;;;;;;3.33;3.00;;;18.10;99.90;;;;;;5071969;28;20492;-48
2022/08/01 03:40:41;;;;;;;6.10;2.87;;;18.20;99.90;;;;;;5071816;28;20547;-48
2022/08/01 03:43:12;;;;;;;6.13;3.33;;;18.20;99.90;;;;;;5071847;28;20498;-48
2022/08/01 03:45:43;;;;;;;4.33;2.93;;;18.00;99.90;;;;;;5071842;28;21018;-49
2022/08/01 03:48:14;;;;;;;4.07;2.70;;;17.90;99.90;;;;;;5137090;22;20479;-53
2022/08/01 03:50:44;;;;;;;4.43;3.10;;;17.90;99.90;;;;;;5091316;28;20570;-52
2022/08/01 03:53:12;;;;;;;4.73;3.23;;;17.90;99.90;;;;;;5091871;28;20471;-53
2022/08/01 03:55:44;;;;;;;3.90;3.27;;;17.70;99.90;;;;;;5091808;28;20871;-50
2022/08/01 03:58:13;;;;;;;6.13;3.97;;;17.40;99.90;;;;;;5091827;28;20478;-50
2022/08/01 04:00:41;;;;;;;5.53;4.00;;;17.30;99.90;;;;;;5091782;28;20920;-52
2022/08/01 04:03:09;;;;;;;4.77;3.60;;;17.40;99.90;;;;;;5091634;28;20444;-51
2022/08/01 04:05:36;;;;;;;4.90;3.40;;;17.40;99.90;;;;;;5091780;28;20451;-52
2022/08/01 04:08:03;;;;;;;4.10;3.70;;;17.50;99.90;;;;;;5091600;28;20555;-50
2022/08/01 04:10:30;;;;;;;3.57;3.27;;;17.60;99.90;;;;;;5091348;28;20447;-52
2022/08/01 04:12:59;;;;;;;3.30;3.00;;;17.70;99.90;;;;;;5091309;28;20467;-52
2022/08/01 04:15:26;;;;;;;5.00;3.37;;;17.70;99.90;;;;;;5091619;28;20455;-50
2022/08/01 04:17:53;;;;;;;3.70;3.33;;;17.50;99.90;;;;;;5091424;28;21195;-52
2022/08/01 04:20:20;;;;;;;3.30;3.10;;;17.60;99.90;;;;;;5090935;28;20432;-52
2022/08/01 04:22:48;;;;;;;3.80;3.50;;;17.70;99.90;;;;;;5091432;28;20475;-52
2022/08/01 04:25:22;;;;;;;3.40;3.10;;;17.80;99.90;;;;;;5091306;28;20509;-54
2022/08/01 04:27:53;;;;;;;3.43;3.00;;;17.80;99.90;;;;;;5091169;28;20475;-52
2022/08/01 04:30:26;;;;;;;6.23;3.40;;;17.90;99.90;;;;;;5091109;28;20447;-50
2022/08/01 04:32:56;;;;;;;4.77;3.60;;;17.80;99.90;;;;;;5091188;28;20439;-51
2022/08/01 04:35:25;;;;;;;4.83;4.13;;;17.80;99.90;;;;;;5091184;28;20452;-50
2022/08/01 04:37:54;;;;;;;3.30;3.00;;;17.70;99.90;;;;;;5090987;28;20975;-50
2022/08/01 04:40:22;;;;;;;3.87;3.50;;;17.80;99.90;;;;;;5090799;28;20452;-52
2022/08/01 04:42:50;;;;;;;4.33;3.60;;;17.80;99.90;;;;;;5090947;28;20447;-52
2022/08/01 04:45:17;;;;;;;15.67;4.27;;;17.60;99.90;;;;;;5090758;28;20621;-50
2022/08/01 04:47:47;;;;;;;3.63;3.33;;;17.60;99.90;;;;;;5090467;28;20976;-53
2022/08/01 04:50:14;;;;;;;3.57;3.27;;;17.60;99.90;;;;;;5090520;28;20854;-54
2022/08/01 04:52:42;;;;;;;4.37;3.83;;;17.60;99.90;;;;;;5090953;28;20482;-50
2022/08/01 04:55:10;;;;;;;3.73;3.43;;;17.70;99.90;;;;;;5090486;28;20471;-51
2022/08/01 04:57:41;;;;;;;3.50;3.20;;;17.80;99.90;;;;;;5090518;28;20543;-51
2022/08/01 05:00:10;;;;;;;3.43;3.13;;;17.90;99.90;;;;;;5090486;28;20714;-51
2022/08/01 05:02:37;;;;;;;3.50;3.20;;;18.00;99.90;;;;;;5090557;28;20439;-53
2022/08/01 05:05:07;;;;;;;3.27;2.97;;;18.10;99.90;;;;;;5090491;28;20489;-52
2022/08/01 05:07:35;;;;;;;6.40;4.33;;;18.10;99.90;;;;;;5090489;28;20467;-50
2022/08/01 05:10:03;;;;;;;4.83;4.20;;;18.10;99.90;;;;;;5090127;28;20432;-53
2022/08/01 05:12:31;;;;;;;5.00;3.90;;;18.10;99.90;;;;;;5090485;28;20451;-52
2022/08/01 05:14:58;;;;;;;7.17;4.30;;;18.10;99.90;;;;;;5090076;28;20477;-53
2022/08/01 05:17:25;;;;;;;5.03;4.50;;;18.00;99.90;;;;;;5090361;28;20440;-53
2022/08/01 05:19:52;;;;;;;6.20;5.07;;;18.10;99.90;;;;;;5090102;28;20462;-54
2022/08/01 05:22:22;;;;;;;6.10;4.80;;;18.10;99.90;;;;;;5090081;28;20886;-50
2022/08/01 05:24:49;;;;;;;3.83;3.53;;;18.00;99.90;;;;;;5090142;28;20855;-53
2022/08/01 05:27:16;;;;;;;3.83;3.53;;;18.10;99.90;;;;;;5090156;28;20447;-50
2022/08/01 05:29:43;;;;;;;4.27;3.87;;;18.10;99.90;;;;;;5090391;28;20447;-53
2022/08/01 05:32:10;;;;;;;3.80;3.50;;;18.10;99.90;;;;;;5090081;28;20511;-50
2022/08/01 05:34:37;;;;;;;5.97;5.10;;;18.10;99.90;;;;;;5089835;28;20475;-54
2022/08/01 05:37:04;;;;;;;4.07;3.67;;;18.20;99.90;;;;;;5090240;28;20447;-50
2022/08/01 05:39:32;;;;;;;4.87;4.57;;;18.20;99.90;;;;;;5089809;28;20532;-52
2022/08/01 05:41:59;;;;;;;4.83;4.33;;;18.20;99.90;;;;;;5089932;28;20432;-51
2022/08/01 05:44:26;;;;;;;5.03;4.07;;;18.20;99.90;;;;;;5090244;28;20505;-50
2022/08/01 05:46:53;;;;;;;6.00;3.73;;;18.10;99.90;;;;;;5090036;28;20864;-51
2022/08/01 05:49:20;;;;;;;4.93;4.53;;;18.20;99.90;;;;;;5089549;28;20504;-51
2022/08/01 05:51:47;;;;;;;5.00;4.57;;;18.20;99.90;;;;;;5089754;28;20865;-52
2022/08/01 05:54:14;;;;;;;4.97;4.50;;;18.10;99.90;;;;;;5089783;28;20532;-52
2022/08/01 05:56:43;;;;;;;8.33;4.50;;;18.10;99.90;;;;;;5089029;28;20424;-52
2022/08/01 05:59:10;;;;;;;3.93;3.63;;;18.10;99.90;;;;;;5092484;28;20475;-50
2022/08/01 06:01:37;;;;;;;4.30;3.80;;;18.20;99.90;;;;;;5093951;28;20453;-52
2022/08/01 06:04:04;;;;;;;4.37;4.03;;;18.20;99.90;;;;;;5093924;28;20427;-54
2022/08/01 06:06:31;;;;;;;6.60;4.10;;;18.10;99.90;;;;;;5094087;28;20444;-50
2022/08/01 06:08:58;;;;;;;5.50;5.03;;;18.20;99.90;;;;;;5093589;28;21218;-50
2022/08/01 06:11:25;;;;;;;4.37;3.03;;;18.30;99.90;;;;;;5093978;28;20443;-51
2022/08/01 06:13:54;;;;;;;3.70;3.40;;;18.30;99.90;;;;;;5093802;28;20471;-50
2022/08/01 06:16:21;;;;;;;3.67;3.37;;;18.40;99.90;;;;;;5093641;28;20982;-51
2022/08/01 06:18:48;;;;;;;3.50;3.20;;;18.30;99.90;;;;;;5093350;28;20509;-51
2022/08/01 06:21:15;;;;;;;4.40;4.00;;;18.50;99.90;;;;;;5093638;28;20427;-51
2022/08/01 06:23:42;;;;;;;3.23;2.90;;;18.70;99.90;;;;;;5093592;28;20862;-53
2022/08/01 06:26:09;;;;;;;5.13;4.30;;;18.90;99.90;;;;;;5093553;28;20431;-50
2022/08/01 06:28:37;;;;;;;3.20;3.00;;;19.10;99.90;;;;;;5093305;28;20539;-56
2022/08/01 06:31:05;;;;;;;6.80;4.13;;;19.40;99.90;;;;;;5093248;28;20522;-50
2022/08/01 06:33:32;;;;;;;15.77;11.07;;;19.60;99.90;;;;;;5093435;28;20439;-52
2022/08/01 06:36:00;;;;;;;6.07;4.70;;;19.70;99.90;;;;;;5093531;28;20966;-51
2022/08/01 06:38:27;;;;;;;5.37;4.10;;;19.80;99.90;;;;;;5092190;28;20987;-55
2022/08/01 06:40:54;;;;;;;7.17;3.50;;;19.90;99.90;;;;;;5093334;28;20493;-51
2022/08/01 06:43:21;;;;;;;4.90;3.50;;;19.90;99.90;;;;;;5093158;28;20877;-52
2022/08/01 06:45:49;;;;;;;3.80;3.33;;;19.90;99.90;;;;;;5093130;28;20502;-51
2022/08/01 06:48:17;;;;;;;5.40;4.07;;;19.90;99.90;;;;;;5092806;28;20952;-53
2022/08/01 06:50:44;;;;;;;6.23;4.10;;;19.90;99.90;;;;;;5093118;28;20455;-51
2022/08/01 06:53:11;;;;;;;7.27;3.60;;;20.00;99.90;;;;;;5093144;28;20443;-50
2022/08/01 06:55:39;;;;;;;6.50;3.40;;;20.00;99.90;;;;;;5092801;28;20881;-53
2022/08/01 06:58:06;;;;;;;3.30;3.10;;;20.00;99.90;;;;;;5092774;28;20842;-56
2022/08/01 07:00:33;;;;;;;3.90;3.60;;;19.90;99.90;;;;;;5092768;28;20440;-51
2022/08/01 07:03:00;;;;;;;3.67;3.37;;;19.90;99.90;;;;;;5093247;28;20475;-50
2022/08/01 07:05:30;;;;;;;3.73;3.23;;;19.90;99.90;;;;;;5092726;28;20885;-50
2022/08/01 07:07:58;;;;;;;4.10;3.57;;;19.90;99.90;;;;;;5092356;28;20451;-51
2022/08/01 07:10:25;;;;;;;10.83;4.80;;;20.00;99.90;;;;;;5092430;28;20538;-51
2022/08/01 07:12:52;;;;;;;5.63;3.70;;;20.10;99.90;;;;;;5092757;28;20466;-51
2022/08/01 07:15:21;;;;;;;5.20;3.10;;;20.20;99.90;;;;;;5092487;28;20494;-52
2022/08/01 07:17:48;;;;;;;3.83;3.47;;;20.20;99.90;;;;;;5092464;28;20484;-52
2022/08/01 07:20:15;;;;;;;4.03;3.60;;;20.30;99.90;;;;;;5092317;28;20475;-50
2022/08/01 07:22:44;;;;;;;4.30;3.90;;;20.20;99.90;;;;;;5092447;28;21000;-53
2022/08/01 07:25:11;;;;;;;3.40;3.10;;;20.10;99.90;;;;;;5092590;28;20443;-51
2022/08/01 07:27:38;;;;;;;4.90;3.63;;;20.20;99.90;;;;;;5092546;28;20498;-52
2022/08/01 07:30:06;;;;;;;8.83;4.20;;;20.20;99.90;;;;;;5092534;28;21005;-51
2022/08/01 07:32:34;;;;;;;8.23;4.17;;;20.30;99.90;;;;;;5092289;28;20912;-51
2022/08/01 07:35:02;;;;;;;3.93;3.63;;;20.20;99.90;;;;;;5092103;28;20566;-51
2022/08/01 07:37:29;;;;;;;6.63;4.07;;;20.20;99.90;;;;;;5091886;28;20461;-56
2022/08/01 07:39:57;;;;;;;5.43;4.40;;;20.10;99.90;;;;;;5092205;28;20497;-51
2022/08/01 07:42:24;;;;;;;4.87;4.37;;;20.20;99.90;;;;;;5091926;28;20902;-50
2022/08/01 07:44:51;;;;;;;8.83;5.23;;;20.30;99.90;;;;;;5092158;28;20493;-51
2022/08/01 07:47:24;;;;;;;4.57;4.17;;;20.30;99.90;;;;;;5091989;28;20432;-51
2022/08/01 07:49:51;;;;;;;4.83;4.30;;;20.20;99.90;;;;;;5091841;28;20440;-53
2022/08/01 07:52:18;;;;;;;5.00;4.00;;;20.30;99.90;;;;;;5091945;28;20448;-50
2022/08/01 07:54:45;;;;;;;5.00;4.60;;;20.40;99.90;;;;;;5091777;28;20468;-53
2022/08/01 07:57:14;;;;;;;4.27;3.87;;;20.60;99.90;;;;;;5091612;28;20424;-51
2022/08/01 07:59:41;;;;;;;5.10;3.90;;;20.60;99.90;;;;;;5091502;28;20872;-51
2022/08/01 08:02:08;;;;;;;8.47;4.07;;;20.70;99.90;;;;;;5091814;28;20940;-53
2022/08/01 08:04:35;;;;;;;3.80;3.40;;;20.60;99.90;;;;;;5091545;28;20954;-49
2022/08/01 08:07:02;;;;;;;3.50;3.20;;;20.70;99.90;;;;;;5091541;28;20439;-49
2022/08/01 08:09:29;;;;;;;4.80;4.40;;;20.80;99.90;;;;;;5091472;28;20857;-50
2022/08/01 08:11:56;;;;;;;8.90;4.23;;;21.00;99.90;;;;;;5091416;28;20462;-50
2022/08/01 08:14:25;;;;;;;9.40;5.03;;;21.10;99.90;;;;;;5091435;28;20463;-51
2022/08/01 08:16:52;;;;;;;7.53;4.33;;;21.20;99.90;;;;;;5091483;28;20455;-48
2022/08/01 08:19:19;;;;;;;11.60;4.40;;;21.30;99.90;;;;;;5091106;28;20516;-50
2022/08/01 08:21:46;;;;;;;3.90;3.37;;;21.30;99.90;;;;;;5090874;28;20452;-48
2022/08/01 08:24:23;;;;;;;3.37;3.07;;;21.40;99.90;;;;;;5091373;28;20508;-53
2022/08/01 08:26:51;;;;;;;9.40;6.00;;;21.40;99.90;;;;;;5091170;28;20801;-48
2022/08/01 08:29:19;;;;;;;6.40;4.17;;;21.60;99.90;;;;;;5090937;28;20471;-49
2022/08/01 08:31:47;;;;;;;4.03;3.63;;;21.60;99.90;;;;;;5091471;28;20455;-49
2022/08/01 08:34:14;;;;;;;37.70;8.70;;;21.50;99.90;;;;;;5090963;28;20462;-53
2022/08/01 08:36:42;;;;;;;15.40;7.07;;;21.50;99.90;;;;;;5091107;28;20444;-48
2022/08/01 08:39:09;;;;;;;22.60;5.97;;;21.40;99.90;;;;;;5090459;28;20512;-50
2022/08/01 08:41:36;;;;;;;16.50;4.70;;;21.50;99.90;;;;;;5090934;28;20529;-48
2022/08/01 08:44:04;;;;;;;22.53;5.20;;;21.70;99.90;;;;;;5090878;28;20749;-49
2022/08/01 08:46:33;;;;;;;10.30;3.87;;;21.80;99.90;;;;;;5090910;28;20439;-48
2022/08/01 08:49:03;;;;;;;4.93;4.30;;;21.90;99.90;;;;;;5090522;28;20972;-48
2022/08/01 08:51:33;;;;;;;4.67;3.87;;;21.90;99.90;;;;;;5090682;28;20430;-49
2022/08/01 08:54:03;;;;;;;5.63;3.63;;;21.80;99.90;;;;;;5090800;28;20505;-51
2022/08/01 08:56:34;;;;;;;4.60;4.20;;;21.80;99.90;;;;;;5090402;28;20815;-50
2022/08/01 08:59:01;;;;;;;4.67;4.17;;;21.80;99.90;;;;;;5090380;28;20538;-48
2022/08/01 09:01:29;;;;;;;5.20;4.23;;;21.80;99.90;;;;;;5090852;28;20537;-49
2022/08/01 09:03:56;;;;;;;5.23;4.37;;;21.70;99.90;;;;;;5090660;28;20504;-51
2022/08/01 09:06:25;;;;;;;37.43;7.57;;;21.80;99.90;;;;;;5090412;28;20431;-48
2022/08/01 09:08:52;;;;;;;63.23;12.73;;;21.90;99.90;;;;;;5090338;28;21045;-52
2022/08/01 09:11:19;;;;;;;4.40;3.80;;;22.10;99.90;;;;;;5090514;28;20514;-51
2022/08/01 09:14:03;;;;;;;7.57;4.27;;;22.30;99.90;;;;;;5090412;28;20419;-49
2022/08/01 09:16:30;;;;;;;5.07;4.10;;;22.30;99.90;;;;;;5090157;28;20494;-48
2022/08/01 09:19:09;;;;;;;3.70;3.37;;;22.30;99.90;;;;;;5089939;28;20471;-52
2022/08/01 09:21:38;;;;;;;4.97;3.67;;;22.40;99.90;;;;;;5090304;28;20816;-50
2022/08/01 09:24:15;;;;;;;7.23;3.87;;;22.50;99.90;;;;;;5090410;28;20451;-52
2022/08/01 09:26:42;;;;;;;10.70;4.70;;;22.60;99.90;;;;;;5090201;28;20450;-50
2022/08/01 09:29:19;;;;;;;11.53;5.87;;;22.80;99.90;;;;;;5090002;28;20460;-48
2022/08/01 09:31:47;;;;;;;13.50;7.63;;;22.90;99.90;;;;;;5090146;28;20447;-51
2022/08/01 09:34:15;;;;;;;6.00;3.77;;;22.90;99.90;;;;;;5089375;28;20454;-50
2022/08/01 09:36:51;;;;;;;3.43;3.13;;;23.00;99.90;;;;;;5089912;28;20475;-52
2022/08/01 09:39:19;;;;;;;4.43;3.90;;;22.90;99.90;;;;;;5089878;28;20455;-50
2022/08/01 09:41:47;;;;;;;3.97;3.57;;;22.90;99.90;;;;;;5090054;28;20524;-48
2022/08/01 09:44:17;;;;;;;3.00;2.80;;;22.90;99.90;;;;;;5090124;28;20804;-49
2022/08/01 09:47:02;;;;;;;4.50;4.10;;;22.90;99.90;;;;;;5089931;28;20447;-49
2022/08/01 09:49:31;;;;;;;5.13;3.47;;;23.00;99.90;;;;;;5133512;22;20567;-50
2022/08/01 09:52:00;;;;;;;9.07;5.60;;;23.10;99.90;;;;;;5069727;28;20444;-48
2022/08/01 09:54:32;;;;;;;4.17;3.83;;;23.20;99.90;;;;;;5069676;28;20567;-49
2022/08/01 09:57:11;;;;;;;4.23;3.60;;;23.20;99.90;;;;;;5069725;28;20433;-47
2022/08/01 09:59:41;;;;;;;10.67;4.80;;;23.20;99.90;;;;;;5069538;28;20468;-48
2022/08/01 10:02:10;;;;;;;7.37;4.07;;;23.20;99.90;;;;;;5069535;28;20490;-47
2022/08/01 10:04:37;;;;;;;9.20;5.33;;;23.30;99.90;;;;;;5069440;28;20440;-47
2022/08/01 10:07:08;;;;;;;8.73;4.73;;;23.30;99.90;;;;;;5069997;28;20497;-48
2022/08/01 10:09:37;;;;;;;5.33;3.83;;;23.40;99.90;;;;;;5068418;28;20479;-47
2022/08/01 10:12:05;;;;;;;5.77;3.67;;;23.50;99.90;;;;;;5069279;28;21008;-50
2022/08/01 10:14:32;;;;;;;5.10;4.70;;;23.60;99.90;;;;;;5069525;28;20934;-48
2022/08/01 10:17:00;;;;;;;4.40;4.00;;;23.70;99.90;;;;;;5069512;28;20441;-47
2022/08/01 10:19:29;;;;;;;8.30;4.30;;;23.80;99.90;;;;;;5069060;28;20980;-48
2022/08/01 10:21:58;;;;;;;5.23;4.60;;;23.90;99.90;;;;;;5069580;28;20448;-45
2022/08/01 10:24:29;;;;;;;4.20;3.80;;;23.90;99.90;;;;;;5069543;28;20808;-49
2022/08/01 10:27:02;;;;;;;9.80;9.00;;;24.00;99.90;;;;;;5069816;28;20435;-48
2022/08/01 10:29:35;;;;;;;6.50;6.00;;;24.10;99.90;;;;;;5069048;28;20818;-50
2022/08/01 10:32:03;;;;;;;3.50;3.30;;;24.20;99.90;;;;;;5069561;28;20480;-49
2022/08/01 10:34:31;;;;;;;24.87;7.07;;;24.20;99.90;;;;;;5069280;28;20848;-51
2022/08/01 10:36:58;;;;;;;3.93;3.63;;;24.30;99.90;;;;;;5068728;28;20511;-49
2022/08/01 10:39:29;;;;;;;4.50;4.07;;;24.30;99.90;;;;;;5067746;28;20543;-49
2022/08/01 10:41:57;;;;;;;4.13;3.73;;;24.30;99.90;;;;;;5069157;28;20428;-48
2022/08/01 10:44:25;;;;;;;3.87;3.57;;;24.30;99.90;;;;;;5070161;28;20460;-49
2022/08/01 10:46:56;;;;;;;5.20;4.20;;;24.30;99.90;;;;;;5071531;28;20436;-47
2022/08/01 10:49:28;;;;;;;4.40;4.00;;;24.40;99.90;;;;;;5072503;28;21033;-49
2022/08/01 10:51:55;;;;;;;4.30;4.00;;;24.60;99.90;;;;;;5072151;28;20428;-48
2022/08/01 10:54:27;;;;;;;14.37;6.83;;;24.70;99.90;;;;;;5072850;28;20444;-49
2022/08/01 10:56:56;;;;;;;4.37;4.07;;;24.70;99.90;;;;;;5072587;28;20887;-46
2022/08/01 10:59:25;;;;;;;4.10;3.53;;;24.70;99.90;;;;;;5072663;28;20645;-49
2022/08/01 11:01:59;;;;;;;5.20;4.30;;;24.80;99.90;;;;;;5072791;28;20455;-47
2022/08/01 11:04:41;;;;;;;5.20;3.23;;;25.00;99.90;;;;;;5072478;28;20472;-48
2022/08/01 11:07:12;;;;;;;6.40;3.33;;;25.10;99.90;;;;;;5072552;28;20513;-48
2022/08/01 11:09:42;;;;;;;4.97;3.30;;;25.20;99.90;;;;;;5072292;28;20468;-49
2022/08/01 11:12:11;;;;;;;4.30;3.13;;;25.20;99.90;;;;;;5072438;28;21048;-48
2022/08/01 11:15:16;;;;;;;3.60;3.30;;;25.30;99.90;;;;;;5072396;28;20478;-50
2022/08/01 11:17:47;;;;;;;28.47;6.50;;;25.40;99.90;;;;;;5072175;28;20437;-48
2022/08/01 11:20:16;;;;;;;14.33;4.80;;;25.60;99.90;;;;;;5072605;28;20439;-47
2022/08/01 11:23:28;;;;;;;11.97;5.00;;;25.70;99.90;;;;;;5072003;28;20441;-49
2022/08/01 11:26:14;;;;;;;7.13;4.03;;;25.80;99.90;;;;;;5072176;28;20436;-50
2022/08/01 11:28:44;;;;;;;7.20;6.50;;;25.90;99.90;;;;;;5072029;28;20468;-50
2022/08/01 11:31:33;;;;;;;5.30;2.73;;;26.00;99.90;;;;;;5072281;28;20437;-48
2022/08/01 11:34:01;;;;;;;3.00;2.70;;;26.00;99.90;;;;;;5072239;28;20937;-48
2022/08/01 11:36:29;;;;;;;3.03;2.70;;;26.00;99.90;;;;;;5071811;28;20490;-48
2022/08/01 11:39:18;;;;;;;3.33;2.90;;;26.00;99.90;;;;;;5071790;28;20457;-50
2022/08/01 11:41:48;;;;;;;3.37;3.07;;;26.10;99.90;;;;;;5072021;28;20526;-47
2022/08/01 11:44:22;;;;;;;3.00;2.70;;;26.10;99.90;;;;;;5071965;28;21003;-50
2022/08/01 11:46:55;;;;;;;3.47;2.77;;;26.20;99.90;;;;;;5071761;28;20448;-49
2022/08/01 11:49:59;;;;;;;5.50;3.00;;;26.20;99.90;;;;;;5071569;28;20716;-48
2022/08/01 11:52:28;;;;;;;3.40;2.47;;;26.30;99.90;;;;;;5070022;28;20913;-50
2022/08/01 11:54:57;;;;;;;6.13;2.67;;;26.30;99.90;;;;;;5071934;28;20836;-49
2022/08/01 11:57:30;;;;;;;3.13;2.30;;;26.50;99.90;;;;;;5070675;28;20503;-47
2022/08/01 11:59:59;;;;;;;3.10;2.30;;;26.40;99.90;;;;;;5071335;28;20456;-51
2022/08/01 12:02:28;;;;;;;2.57;2.37;;;26.50;99.90;;;;;;5071503;28;20500;-47
2022/08/01 12:04:57;;;;;;;6.33;2.07;;;26.50;99.90;;;;;;5071715;28;20514;-45
2022/08/01 12:07:26;;;;;;;3.20;2.70;;;26.50;99.90;;;;;;5071214;28;20914;-48
2022/08/01 12:10:02;;;;;;;5.57;3.30;;;26.50;99.90;;;;;;5071063;28;20478;-51
2022/08/01 12:12:31;;;;;;;2.90;2.60;;;26.50;99.90;;;;;;5071662;28;20487;-48
2022/08/01 12:15:02;;;;;;;2.83;2.20;;;26.50;99.90;;;;;;5071402;28;20452;-50
2022/08/01 12:17:31;;;;;;;3.57;2.70;;;26.50;99.30;;;;;;5071225;28;20929;-50
2022/08/01 12:19:58;;;;;;;4.33;3.00;;;26.50;98.30;;;;;;5070938;28;20504;-48
2022/08/01 12:22:25;;;;;;;3.30;3.00;;;26.50;99.90;;;;;;5070726;28;20810;-49
2022/08/01 12:24:53;;;;;;;3.60;2.63;;;26.50;99.90;;;;;;5071118;28;20505;-50
2022/08/01 12:27:28;;;;;;;5.20;2.47;;;26.20;99.90;;;;;;5071101;28;20449;-48
2022/08/01 12:29:59;;;;;;;3.30;2.60;;;26.00;99.90;;;;;;5070809;28;20530;-48
2022/08/01 12:32:30;;;;;;;3.07;2.43;;;25.90;99.90;;;;;;5070985;28;20455;-49
2022/08/01 12:35:01;;;;;;;6.27;4.00;;;25.70;99.90;;;;;;5071216;28;20444;-48
2022/08/01 12:37:29;;;;;;;3.00;2.70;;;25.70;99.90;;;;;;5070432;28;20464;-48
2022/08/01 12:39:57;;;;;;;2.57;2.37;;;25.80;99.90;;;;;;5070740;28;20468;-48
2022/08/01 12:42:25;;;;;;;2.57;2.37;;;25.80;99.80;;;;;;5070826;28;20996;-49
2022/08/01 12:44:53;;;;;;;3.20;2.90;;;25.80;99.90;;;;;;5071145;28;20921;-49
2022/08/01 12:47:22;;;;;;;2.60;2.40;;;25.80;99.90;;;;;;5070530;28;20475;-52
2022/08/01 12:49:50;;;;;;;2.60;2.40;;;25.90;99.90;;;;;;5070018;28;20472;-48
2022/08/01 12:52:22;;;;;;;4.50;2.43;;;26.00;99.90;;;;;;5070622;28;20440;-49
2022/08/01 12:55:09;;;;;;;2.90;2.20;;;26.10;99.90;;;;;;5070435;28;20930;-47
2022/08/01 12:57:36;;;;;;;4.00;2.70;;;26.30;99.30;;;;;;5070384;28;20468;-50